Nearby METAR Reports

 

KVTA - Newark, Ohio, USA
Distance from station: SE 2mi, 3km
Updated: 01/21/2018 8:54am
Fog, Overcast
Fog, Overcast
 Wind from calm
Wind: Calm
Temperature: 36°F , 2°C
Dew Point: 36°F , 2°C
Humidity: 100%
Barometer: 30.11 inHg , 1019.6 hPa
Summary: Fog
Clouds: Overcast
Visibility: 1/4 mile , 0.4 km
Cloud details: Overcast 2600 ft
2018/01/21 13:54 KVTA 211354Z AUTO 00000KT 1/4SM FG OVC026 02/02 A3011 RMK AO2 SLP201 T00220022
K4I3 - Mt Vernon/Knox, Ohio, USA
Distance from station: N 21mi, 33km
Updated: 01/21/2018 9:35am
Fog, Overcast
Fog, Overcast
 Wind from SSE
Wind: SSE 3 mph , 6 km/h
Temperature: 39°F , 4°C
Dew Point: 39°F , 4°C
Humidity: 100%
Barometer: 30.12 inHg , 1020 hPa
Summary: Fog
Clouds: Overcast
Visibility: less than 1/4 mile , 0.4 km
Cloud details: Mostly cloudy 200 ft
Mostly cloudy 900 ft
Overcast 2600 ft
2018/01/21 14:35 K4I3 211435Z AUTO 15003KT M1/4SM FG BKN002 BKN009 OVC026 04/04 A3012 RMK AO2
 
KCMH - Columbus, Ohio, USA
Distance from station: W 21mi, 34km
Updated: 01/21/2018 8:51am
Overcast
Overcast
 Wind from calm
Wind: Calm
Temperature: 43°F , 6°C
Dew Point: 43°F , 6°C
Humidity: 100%
Barometer: 30.11 inHg , 1019.6 hPa
Clouds: Overcast
Visibility: 8 miles , 13 km
Cloud details: Overcast 2700 ft
2018/01/21 13:51 KCMH 211351Z 00000KT 8SM OVC027 06/06 A3011 RMK AO2 SLP200 T00560056 $
KLHQ - Lancaster, Ohio, USA
Distance from station: SSW 22mi, 36km
Updated: 01/21/2018 9:38am
Overcast
Overcast
 Wind from S
Wind: S 5 mph , 7 km/h
Temperature: 41°F , 5°C
Wind Chill: 38°F , 3°C
Dew Point: 39°F , 4°C
Humidity: 93%
Barometer: 30.13 inHg , 1020.3 hPa
Clouds: Overcast
Visibility: 10 miles , 16 km
Cloud details: Mostly cloudy 2600 ft
Overcast 7000 ft
2018/01/21 14:38 KLHQ 211438Z AUTO 19004KT 10SM BKN026 OVC070 05/04 A3013 RMK AO2 T00500044
 
KLCK - Rickenbacker Ang, Ohio, USA
Distance from station: SW 27mi, 44km
Updated: 01/21/2018 9:35am
Overcast
Overcast
 Wind from S
Wind: S 8 mph , 13 km/h
Temperature: 41°F , 5°C
Wind Chill: 36°F , 2°C
Dew Point: 39°F , 4°C
Humidity: 93%
Barometer: 30.11 inHg , 1019.6 hPa
Clouds: Overcast
Visibility: 10 miles , 16 km
Cloud details: Overcast 2600 ft
2018/01/21 14:35 KLCK 211435Z AUTO 19007KT 10SM OVC026 05/04 A3011 RMK AO2 T00510040
KOSU - Columbus/St Univ, Ohio, USA
Distance from station: W 32mi, 51km
Updated: 01/21/2018 8:53am
Overcast
Overcast
 Wind from calm
Wind: Calm
Temperature: 43°F , 6°C
Dew Point: 41°F , 5°C
Humidity: 93%
Barometer: 30.10 inHg , 1019.3 hPa
Clouds: Overcast
Visibility: 9 miles , 14 km
Cloud details: Overcast 2600 ft
2018/01/21 13:53 KOSU 211353Z 00000KT 9SM OVC026 06/05 A3010 RMK AO2 SLP198 T00560050
 
KZZV - Zanesville, Ohio, USA
Distance from station: E 32mi, 51km
Updated: 01/21/2018 8:53am
Overcast
Overcast
 Wind from S
Wind: S 7 mph , 11 km/h
Temperature: 41°F , 5°C
Wind Chill: 36°F , 2°C
Dew Point: 37°F , 3°C
Humidity: 87%
Barometer: 30.12 inHg , 1020 hPa
Clouds: Overcast
Visibility: 10 miles , 16 km
Cloud details: Overcast 2900 ft
2018/01/21 13:53 KZZV 211353Z AUTO 18006KT 10SM OVC029 05/03 A3012 RMK AO2 SLP205 T00500033
KTZR - Columbus/Bolton, Ohio, USA
Distance from station: WSW 36mi, 57km
Updated: 01/21/2018 8:45am
Overcast
Overcast
 Wind from S
Wind: S 3 mph , 6 km/h
Temperature: 39°F , 4°C
Dew Point: 39°F , 4°C
Humidity: 100%
Barometer: 30.10 inHg , 1019.3 hPa
Clouds: Overcast
Visibility: 10 miles , 16 km
Cloud details: Overcast 2500 ft
2018/01/21 13:45 KTZR 211345Z 19003KT 10SM OVC025 04/04 A3010
 
KDLZ - Delaware, Ohio, USA
Distance from station: WNW 37mi, 60km
Updated: 01/21/2018 9:35am
Fog, Overcast
Fog, Overcast
 Wind from SE
Wind: SE 3 mph , 6 km/h
Temperature: 37°F , 3°C
Dew Point: 37°F , 3°C
Humidity: 100%
Barometer: 30.11 inHg , 1019.6 hPa
Summary: Fog
Clouds: Overcast
Visibility: 1/4 mile , 0.4 km
Cloud details: Overcast 2400 ft
2018/01/21 14:35 KDLZ 211435Z AUTO 14003KT 1/4SM FG OVC024 03/03 A3011 RMK AO2
KMRT - Marysville, Ohio, USA
Distance from station: WNW 47mi, 76km
Updated: 01/21/2018 9:35am
Overcast
Overcast
 Wind from SSW
Wind: SSW 6 mph , 9 km/h
Temperature: 39°F , 4°C
Wind Chill: 35°F , 2°C
Dew Point: 37°F , 3°C
Humidity: 93%
Barometer: 30.10 inHg , 1019.3 hPa
Clouds: Overcast
Visibility: 10 miles , 16 km
Cloud details: Overcast 2200 ft
2018/01/21 14:35 KMRT 211435Z AUTO 20005KT 10SM OVC022 04/03 A3010 RMK AO2 T00370034
 
KMNN - Marion, Ohio, USA
Distance from station: NW 50mi, 81km
Updated: 01/21/2018 9:44am
Mist, Overcast
Mist, Overcast
 Wind from S
Wind: S 7 mph , 11 km/h
Temperature: 39°F , 4°C
Wind Chill: 34°F , 1°C
Dew Point: 37°F , 3°C
Humidity: 93%
Barometer: 30.10 inHg , 1019.3 hPa
Summary: Mist
Clouds: Overcast
Visibility: 1 1/4 miles , 2 km
Cloud details: Few Clouds 800 ft
Overcast 1600 ft
2018/01/21 14:44 KMNN 211444Z AUTO 17006KT 1 1/4SM BR FEW008 OVC016 04/03 A3010 RMK AO2 RAB16E27 P0000 T00390033